sensor_id;sensor_type;location;lat;lon;timestamp;P1;durP1;ratioP1;P2;durP2;ratioP2
52956;SDS011;38819;42.692;23.342;2023-04-21T00:00:02;13.15;;;8.68;;
52956;SDS011;38819;42.692;23.342;2023-04-21T00:02:31;13.13;;;8.75;;
52956;SDS011;38819;42.692;23.342;2023-04-21T00:04:57;13.57;;;8.95;;
52956;SDS011;38819;42.692;23.342;2023-04-21T00:07:24;14.35;;;8.73;;
52956;SDS011;38819;42.692;23.342;2023-04-21T00:09:49;16.65;;;9.70;;
52956;SDS011;38819;42.692;23.342;2023-04-21T00:12:14;12.80;;;9.02;;
52956;SDS011;38819;42.692;23.342;2023-04-21T00:14:40;14.85;;;8.45;;
52956;SDS011;38819;42.692;23.342;2023-04-21T00:17:05;14.43;;;8.75;;
52956;SDS011;38819;42.692;23.342;2023-04-21T00:19:31;12.98;;;9.43;;
52956;SDS011;38819;42.692;23.342;2023-04-21T00:21:57;11.13;;;8.67;;
52956;SDS011;38819;42.692;23.342;2023-04-21T00:24:25;13.73;;;8.48;;
52956;SDS011;38819;42.692;23.342;2023-04-21T00:26:50;14.82;;;8.75;;
52956;SDS011;38819;42.692;23.342;2023-04-21T00:29:16;11.13;;;8.57;;
52956;SDS011;38819;42.692;23.342;2023-04-21T00:31:41;13.23;;;8.57;;
52956;SDS011;38819;42.692;23.342;2023-04-21T00:34:07;14.57;;;9.15;;
52956;SDS011;38819;42.692;23.342;2023-04-21T00:36:32;13.75;;;8.73;;
52956;SDS011;38819;42.692;23.342;2023-04-21T00:38:58;14.27;;;9.43;;
52956;SDS011;38819;42.692;23.342;2023-04-21T00:41:23;9.77;;;8.35;;
52956;SDS011;38819;42.692;23.342;2023-04-21T00:44:05;16.13;;;9.43;;
52956;SDS011;38819;42.692;23.342;2023-04-21T00:46:32;10.02;;;8.18;;
52956;SDS011;38819;42.692;23.342;2023-04-21T00:48:58;14.88;;;9.82;;
52956;SDS011;38819;42.692;23.342;2023-04-21T00:51:27;13.88;;;10.52;;
52956;SDS011;38819;42.692;23.342;2023-04-21T00:53:54;14.88;;;10.32;;
52956;SDS011;38819;42.692;23.342;2023-04-21T00:56:20;15.27;;;10.30;;
52956;SDS011;38819;42.692;23.342;2023-04-21T00:58:46;17.40;;;10.68;;
52956;SDS011;38819;42.692;23.342;2023-04-21T01:01:13;17.90;;;10.60;;
52956;SDS011;38819;42.692;23.342;2023-04-21T01:03:39;14.15;;;10.18;;
52956;SDS011;38819;42.692;23.342;2023-04-21T01:06:05;16.23;;;10.68;;
52956;SDS011;38819;42.692;23.342;2023-04-21T01:08:31;16.50;;;11.00;;
52956;SDS011;38819;42.692;23.342;2023-04-21T01:10:57;18.10;;;11.18;;
52956;SDS011;38819;42.692;23.342;2023-04-21T01:13:22;18.75;;;12.15;;
52956;SDS011;38819;42.692;23.342;2023-04-21T01:15:48;16.95;;;11.63;;
52956;SDS011;38819;42.692;23.342;2023-04-21T01:18:13;19.98;;;12.15;;
52956;SDS011;38819;42.692;23.342;2023-04-21T01:20:39;22.98;;;13.20;;
52956;SDS011;38819;42.692;23.342;2023-04-21T01:23:05;22.77;;;13.45;;
52956;SDS011;38819;42.692;23.342;2023-04-21T01:25:31;23.13;;;12.60;;
52956;SDS011;38819;42.692;23.342;2023-04-21T01:27:57;23.30;;;12.10;;
52956;SDS011;38819;42.692;23.342;2023-04-21T01:30:22;24.80;;;12.93;;
52956;SDS011;38819;42.692;23.342;2023-04-21T01:32:48;20.48;;;11.60;;
52956;SDS011;38819;42.692;23.342;2023-04-21T01:35:14;19.65;;;11.27;;
52956;SDS011;38819;42.692;23.342;2023-04-21T01:37:39;22.15;;;11.50;;
52956;SDS011;38819;42.692;23.342;2023-04-21T01:40:05;18.00;;;11.82;;
52956;SDS011;38819;42.692;23.342;2023-04-21T01:42:33;23.73;;;11.20;;
52956;SDS011;38819;42.692;23.342;2023-04-21T01:45:01;14.27;;;9.57;;
52956;SDS011;38819;42.692;23.342;2023-04-21T01:47:27;17.38;;;11.20;;
52956;SDS011;38819;42.692;23.342;2023-04-21T01:49:52;17.15;;;11.63;;
52956;SDS011;38819;42.692;23.342;2023-04-21T01:52:18;17.67;;;11.43;;
52956;SDS011;38819;42.692;23.342;2023-04-21T01:54:44;16.50;;;10.63;;
52956;SDS011;38819;42.692;23.342;2023-04-21T01:57:09;15.90;;;11.70;;
52956;SDS011;38819;42.692;23.342;2023-04-21T01:59:34;20.33;;;10.45;;
52956;SDS011;38819;42.692;23.342;2023-04-21T02:02:00;24.30;;;10.35;;
52956;SDS011;38819;42.692;23.342;2023-04-21T02:04:25;13.65;;;10.23;;
52956;SDS011;38819;42.692;23.342;2023-04-21T02:06:51;18.35;;;10.65;;
52956;SDS011;38819;42.692;23.342;2023-04-21T02:09:16;17.77;;;11.35;;
52956;SDS011;38819;42.692;23.342;2023-04-21T02:11:41;19.02;;;11.38;;
52956;SDS011;38819;42.692;23.342;2023-04-21T02:14:07;19.17;;;11.23;;
52956;SDS011;38819;42.692;23.342;2023-04-21T02:16:32;15.07;;;11.05;;
52956;SDS011;38819;42.692;23.342;2023-04-21T02:18:58;22.17;;;11.32;;
52956;SDS011;38819;42.692;23.342;2023-04-21T02:21:27;15.02;;;10.60;;
52956;SDS011;38819;42.692;23.342;2023-04-21T02:23:52;17.98;;;11.73;;
52956;SDS011;38819;42.692;23.342;2023-04-21T02:26:18;16.77;;;10.45;;
52956;SDS011;38819;42.692;23.342;2023-04-21T02:28:44;20.58;;;11.43;;
52956;SDS011;38819;42.692;23.342;2023-04-21T02:31:11;15.75;;;9.88;;
52956;SDS011;38819;42.692;23.342;2023-04-21T02:33:36;14.55;;;10.35;;
52956;SDS011;38819;42.692;23.342;2023-04-21T02:36:02;16.50;;;10.35;;
52956;SDS011;38819;42.692;23.342;2023-04-21T02:38:28;12.63;;;10.15;;
52956;SDS011;38819;42.692;23.342;2023-04-21T02:40:54;16.20;;;9.30;;
52956;SDS011;38819;42.692;23.342;2023-04-21T02:43:20;17.23;;;9.55;;
52956;SDS011;38819;42.692;23.342;2023-04-21T02:45:46;15.73;;;8.73;;
52956;SDS011;38819;42.692;23.342;2023-04-21T02:48:11;17.70;;;9.15;;
52956;SDS011;38819;42.692;23.342;2023-04-21T02:50:36;16.90;;;9.60;;
52956;SDS011;38819;42.692;23.342;2023-04-21T02:53:02;12.10;;;9.48;;
52956;SDS011;38819;42.692;23.342;2023-04-21T02:55:27;15.02;;;8.38;;
52956;SDS011;38819;42.692;23.342;2023-04-21T02:57:53;13.60;;;8.95;;
52956;SDS011;38819;42.692;23.342;2023-04-21T03:00:18;14.55;;;8.65;;
52956;SDS011;38819;42.692;23.342;2023-04-21T03:02:44;12.52;;;8.82;;
52956;SDS011;38819;42.692;23.342;2023-04-21T03:05:10;9.90;;;8.70;;
52956;SDS011;38819;42.692;23.342;2023-04-21T03:07:36;17.25;;;8.52;;
52956;SDS011;38819;42.692;23.342;2023-04-21T03:10:02;23.27;;;10.05;;
52956;SDS011;38819;42.692;23.342;2023-04-21T03:12:28;16.17;;;10.07;;
52956;SDS011;38819;42.692;23.342;2023-04-21T03:14:53;19.58;;;11.52;;
52956;SDS011;38819;42.692;23.342;2023-04-21T03:17:18;16.70;;;10.52;;
52956;SDS011;38819;42.692;23.342;2023-04-21T03:19:44;16.67;;;10.32;;
52956;SDS011;38819;42.692;23.342;2023-04-21T03:22:09;23.25;;;12.02;;
52956;SDS011;38819;42.692;23.342;2023-04-21T03:24:35;19.73;;;11.32;;
52956;SDS011;38819;42.692;23.342;2023-04-21T03:27:00;16.50;;;11.77;;
52956;SDS011;38819;42.692;23.342;2023-04-21T03:29:26;16.67;;;10.82;;
52956;SDS011;38819;42.692;23.342;2023-04-21T03:31:52;22.40;;;11.57;;
52956;SDS011;38819;42.692;23.342;2023-04-21T03:34:17;16.02;;;11.27;;
52956;SDS011;38819;42.692;23.342;2023-04-21T03:36:43;17.27;;;11.68;;
52956;SDS011;38819;42.692;23.342;2023-04-21T03:39:08;17.08;;;11.45;;
52956;SDS011;38819;42.692;23.342;2023-04-21T03:41:33;15.82;;;10.70;;
52956;SDS011;38819;42.692;23.342;2023-04-21T03:43:59;14.73;;;10.82;;
52956;SDS011;38819;42.692;23.342;2023-04-21T03:46:24;16.23;;;11.55;;
52956;SDS011;38819;42.692;23.342;2023-04-21T03:48:50;17.75;;;10.90;;
52956;SDS011;38819;42.692;23.342;2023-04-21T03:51:15;16.63;;;10.68;;
52956;SDS011;38819;42.692;23.342;2023-04-21T03:53:41;16.60;;;10.73;;
52956;SDS011;38819;42.692;23.342;2023-04-21T03:56:07;20.10;;;11.95;;
52956;SDS011;38819;42.692;23.342;2023-04-21T03:58:33;18.15;;;10.18;;
52956;SDS011;38819;42.692;23.342;2023-04-21T04:00:58;19.50;;;10.32;;
52956;SDS011;38819;42.692;23.342;2023-04-21T04:03:24;15.70;;;10.90;;
52956;SDS011;38819;42.692;23.342;2023-04-21T04:05:49;12.80;;;9.63;;
52956;SDS011;38819;42.692;23.342;2023-04-21T04:08:16;14.20;;;10.85;;
52956;SDS011;38819;42.692;23.342;2023-04-21T04:10:41;14.13;;;9.80;;
52956;SDS011;38819;42.692;23.342;2023-04-21T04:13:07;10.43;;;8.93;;
52956;SDS011;38819;42.692;23.342;2023-04-21T04:15:32;14.38;;;10.30;;
52956;SDS011;38819;42.692;23.342;2023-04-21T04:17:57;15.90;;;9.20;;
52956;SDS011;38819;42.692;23.342;2023-04-21T04:20:23;14.27;;;8.70;;
52956;SDS011;38819;42.692;23.342;2023-04-21T04:22:48;10.15;;;8.50;;
52956;SDS011;38819;42.692;23.342;2023-04-21T04:25:14;11.95;;;9.02;;
52956;SDS011;38819;42.692;23.342;2023-04-21T04:27:41;12.80;;;8.73;;
52956;SDS011;38819;42.692;23.342;2023-04-21T04:30:08;11.63;;;8.68;;
52956;SDS011;38819;42.692;23.342;2023-04-21T04:32:34;16.65;;;9.68;;
52956;SDS011;38819;42.692;23.342;2023-04-21T04:35:02;13.40;;;9.27;;
52956;SDS011;38819;42.692;23.342;2023-04-21T04:37:28;14.13;;;8.75;;
52956;SDS011;38819;42.692;23.342;2023-04-21T04:39:53;14.18;;;9.13;;
52956;SDS011;38819;42.692;23.342;2023-04-21T04:42:19;11.50;;;7.95;;
52956;SDS011;38819;42.692;23.342;2023-04-21T04:44:44;10.40;;;7.75;;
52956;SDS011;38819;42.692;23.342;2023-04-21T04:47:11;15.82;;;9.00;;
52956;SDS011;38819;42.692;23.342;2023-04-21T04:49:36;18.08;;;9.45;;
52956;SDS011;38819;42.692;23.342;2023-04-21T04:52:02;16.17;;;9.68;;
52956;SDS011;38819;42.692;23.342;2023-04-21T04:54:27;15.02;;;9.13;;
52956;SDS011;38819;42.692;23.342;2023-04-21T04:56:53;27.40;;;13.95;;
52956;SDS011;38819;42.692;23.342;2023-04-21T04:59:19;26.67;;;13.95;;
52956;SDS011;38819;42.692;23.342;2023-04-21T05:01:45;28.02;;;15.10;;
52956;SDS011;38819;42.692;23.342;2023-04-21T05:04:10;33.80;;;15.55;;
52956;SDS011;38819;42.692;23.342;2023-04-21T05:06:40;28.45;;;15.00;;
52956;SDS011;38819;42.692;23.342;2023-04-21T05:09:05;24.50;;;14.48;;
52956;SDS011;38819;42.692;23.342;2023-04-21T05:11:31;31.20;;;15.73;;
52956;SDS011;38819;42.692;23.342;2023-04-21T05:13:56;24.52;;;14.43;;
52956;SDS011;38819;42.692;23.342;2023-04-21T05:16:21;21.83;;;15.57;;
52956;SDS011;38819;42.692;23.342;2023-04-21T05:18:47;26.63;;;15.43;;
52956;SDS011;38819;42.692;23.342;2023-04-21T05:21:21;27.15;;;14.77;;
52956;SDS011;38819;42.692;23.342;2023-04-21T05:23:56;30.38;;;15.77;;
52956;SDS011;38819;42.692;23.342;2023-04-21T05:26:23;28.33;;;14.52;;
52956;SDS011;38819;42.692;23.342;2023-04-21T05:28:50;26.83;;;14.48;;
52956;SDS011;38819;42.692;23.342;2023-04-21T05:31:15;22.73;;;13.52;;
52956;SDS011;38819;42.692;23.342;2023-04-21T05:33:41;27.80;;;13.93;;
52956;SDS011;38819;42.692;23.342;2023-04-21T05:36:06;20.13;;;11.57;;
52956;SDS011;38819;42.692;23.342;2023-04-21T05:38:35;13.48;;;9.80;;
52956;SDS011;38819;42.692;23.342;2023-04-21T05:41:02;13.90;;;8.95;;
52956;SDS011;38819;42.692;23.342;2023-04-21T05:43:28;19.05;;;12.20;;
52956;SDS011;38819;42.692;23.342;2023-04-21T05:45:53;13.65;;;9.90;;
52956;SDS011;38819;42.692;23.342;2023-04-21T05:48:19;10.05;;;8.50;;
52956;SDS011;38819;42.692;23.342;2023-04-21T05:50:44;11.02;;;9.10;;
52956;SDS011;38819;42.692;23.342;2023-04-21T05:53:10;20.05;;;9.20;;
52956;SDS011;38819;42.692;23.342;2023-04-21T05:55:35;13.48;;;9.30;;
52956;SDS011;38819;42.692;23.342;2023-04-21T05:58:01;11.38;;;9.02;;
52956;SDS011;38819;42.692;23.342;2023-04-21T06:00:28;12.93;;;9.15;;
52956;SDS011;38819;42.692;23.342;2023-04-21T06:02:53;12.32;;;8.35;;
52956;SDS011;38819;42.692;23.342;2023-04-21T06:05:19;18.27;;;8.65;;
52956;SDS011;38819;42.692;23.342;2023-04-21T06:07:44;15.07;;;8.60;;
52956;SDS011;38819;42.692;23.342;2023-04-21T06:10:11;12.80;;;8.40;;
52956;SDS011;38819;42.692;23.342;2023-04-21T06:12:37;11.82;;;8.40;;
52956;SDS011;38819;42.692;23.342;2023-04-21T06:15:03;14.90;;;8.27;;
52956;SDS011;38819;42.692;23.342;2023-04-21T06:17:28;14.73;;;7.70;;
52956;SDS011;38819;42.692;23.342;2023-04-21T06:19:54;12.23;;;8.05;;
52956;SDS011;38819;42.692;23.342;2023-04-21T06:22:20;13.45;;;10.00;;
52956;SDS011;38819;42.692;23.342;2023-04-21T06:24:49;19.73;;;8.75;;
52956;SDS011;38819;42.692;23.342;2023-04-21T06:27:14;13.30;;;8.73;;
52956;SDS011;38819;42.692;23.342;2023-04-21T06:29:40;12.65;;;8.60;;
52956;SDS011;38819;42.692;23.342;2023-04-21T06:32:09;16.23;;;8.93;;
52956;SDS011;38819;42.692;23.342;2023-04-21T06:34:35;11.90;;;8.48;;
52956;SDS011;38819;42.692;23.342;2023-04-21T06:37:01;14.93;;;8.50;;
52956;SDS011;38819;42.692;23.342;2023-04-21T06:39:26;14.30;;;8.20;;
52956;SDS011;38819;42.692;23.342;2023-04-21T06:41:52;19.30;;;9.27;;
52956;SDS011;38819;42.692;23.342;2023-04-21T06:44:17;17.10;;;8.43;;
52956;SDS011;38819;42.692;23.342;2023-04-21T06:46:43;10.05;;;8.32;;
52956;SDS011;38819;42.692;23.342;2023-04-21T06:49:09;10.13;;;7.85;;
52956;SDS011;38819;42.692;23.342;2023-04-21T06:51:34;10.73;;;8.20;;
52956;SDS011;38819;42.692;23.342;2023-04-21T06:54:01;14.88;;;9.02;;
52956;SDS011;38819;42.692;23.342;2023-04-21T06:56:27;14.68;;;8.60;;
52956;SDS011;38819;42.692;23.342;2023-04-21T06:58:52;14.07;;;9.20;;
52956;SDS011;38819;42.692;23.342;2023-04-21T07:01:17;17.05;;;8.65;;
52956;SDS011;38819;42.692;23.342;2023-04-21T07:03:43;15.60;;;8.05;;
52956;SDS011;38819;42.692;23.342;2023-04-21T07:06:09;12.75;;;8.38;;
52956;SDS011;38819;42.692;23.342;2023-04-21T07:08:34;12.60;;;8.32;;
52956;SDS011;38819;42.692;23.342;2023-04-21T07:11:00;13.73;;;8.68;;
52956;SDS011;38819;42.692;23.342;2023-04-21T07:13:26;13.45;;;8.15;;
52956;SDS011;38819;42.692;23.342;2023-04-21T07:15:51;11.15;;;7.80;;
52956;SDS011;38819;42.692;23.342;2023-04-21T07:18:17;11.77;;;7.60;;
52956;SDS011;38819;42.692;23.342;2023-04-21T07:20:42;15.85;;;7.55;;
52956;SDS011;38819;42.692;23.342;2023-04-21T07:23:08;9.00;;;6.25;;
52956;SDS011;38819;42.692;23.342;2023-04-21T07:25:33;9.10;;;7.50;;
52956;SDS011;38819;42.692;23.342;2023-04-21T07:27:59;9.95;;;6.80;;
52956;SDS011;38819;42.692;23.342;2023-04-21T07:30:24;9.93;;;6.78;;
52956;SDS011;38819;42.692;23.342;2023-04-21T07:32:50;14.07;;;8.45;;
52956;SDS011;38819;42.692;23.342;2023-04-21T07:35:15;11.18;;;7.20;;
52956;SDS011;38819;42.692;23.342;2023-04-21T07:37:41;12.40;;;7.47;;
52956;SDS011;38819;42.692;23.342;2023-04-21T07:40:07;15.35;;;7.68;;
52956;SDS011;38819;42.692;23.342;2023-04-21T07:42:33;11.20;;;7.22;;
52956;SDS011;38819;42.692;23.342;2023-04-21T07:44:58;12.02;;;7.60;;
52956;SDS011;38819;42.692;23.342;2023-04-21T07:47:25;9.38;;;7.00;;
52956;SDS011;38819;42.692;23.342;2023-04-21T07:49:51;13.68;;;7.07;;
52956;SDS011;38819;42.692;23.342;2023-04-21T07:52:16;7.57;;;6.18;;
52956;SDS011;38819;42.692;23.342;2023-04-21T07:54:42;10.80;;;6.50;;
52956;SDS011;38819;42.692;23.342;2023-04-21T07:57:07;10.85;;;5.55;;
52956;SDS011;38819;42.692;23.342;2023-04-21T07:59:34;7.13;;;5.05;;
52956;SDS011;38819;42.692;23.342;2023-04-21T08:02:00;9.70;;;6.15;;
52956;SDS011;38819;42.692;23.342;2023-04-21T08:04:25;13.00;;;6.22;;
52956;SDS011;38819;42.692;23.342;2023-04-21T08:06:51;9.05;;;5.90;;
52956;SDS011;38819;42.692;23.342;2023-04-21T08:09:16;9.30;;;6.05;;
52956;SDS011;38819;42.692;23.342;2023-04-21T08:11:42;11.15;;;5.68;;
52956;SDS011;38819;42.692;23.342;2023-04-21T08:14:07;9.20;;;6.32;;
52956;SDS011;38819;42.692;23.342;2023-04-21T08:16:35;8.32;;;6.05;;
52956;SDS011;38819;42.692;23.342;2023-04-21T08:19:01;10.75;;;6.55;;
52956;SDS011;38819;42.692;23.342;2023-04-21T08:21:27;12.43;;;6.65;;
52956;SDS011;38819;42.692;23.342;2023-04-21T08:23:52;8.45;;;6.28;;
52956;SDS011;38819;42.692;23.342;2023-04-21T08:26:19;8.10;;;5.90;;
52956;SDS011;38819;42.692;23.342;2023-04-21T08:28:46;11.18;;;5.90;;
52956;SDS011;38819;42.692;23.342;2023-04-21T08:33:39;6.28;;;5.40;;
52956;SDS011;38819;42.692;23.342;2023-04-21T08:36:04;8.25;;;5.68;;
52956;SDS011;38819;42.692;23.342;2023-04-21T08:38:30;8.20;;;5.40;;
52956;SDS011;38819;42.692;23.342;2023-04-21T08:40:57;9.35;;;5.13;;
52956;SDS011;38819;42.692;23.342;2023-04-21T08:43:23;11.70;;;6.03;;
52956;SDS011;38819;42.692;23.342;2023-04-21T08:45:49;8.10;;;5.28;;
52956;SDS011;38819;42.692;23.342;2023-04-21T08:48:15;7.50;;;5.38;;
52956;SDS011;38819;42.692;23.342;2023-04-21T08:50:44;7.40;;;5.43;;
52956;SDS011;38819;42.692;23.342;2023-04-21T08:53:12;9.20;;;5.18;;
52956;SDS011;38819;42.692;23.342;2023-04-21T08:55:39;7.93;;;5.40;;
52956;SDS011;38819;42.692;23.342;2023-04-21T08:58:05;12.18;;;5.88;;
52956;SDS011;38819;42.692;23.342;2023-04-21T09:00:33;7.82;;;6.30;;
52956;SDS011;38819;42.692;23.342;2023-04-21T09:03:01;10.65;;;5.95;;
52956;SDS011;38819;42.692;23.342;2023-04-21T09:05:29;10.65;;;6.50;;
52956;SDS011;38819;42.692;23.342;2023-04-21T09:10:44;11.77;;;5.47;;
52956;SDS011;38819;42.692;23.342;2023-04-21T09:13:15;5.75;;;4.93;;
52956;SDS011;38819;42.692;23.342;2023-04-21T09:15:42;5.85;;;4.82;;
52956;SDS011;38819;42.692;23.342;2023-04-21T09:18:13;6.60;;;4.97;;
52956;SDS011;38819;42.692;23.342;2023-04-21T09:20:47;8.13;;;4.75;;
52956;SDS011;38819;42.692;23.342;2023-04-21T09:23:15;8.82;;;4.85;;
52956;SDS011;38819;42.692;23.342;2023-04-21T09:25:42;10.43;;;5.60;;
52956;SDS011;38819;42.692;23.342;2023-04-21T09:28:12;7.13;;;4.53;;
52956;SDS011;38819;42.692;23.342;2023-04-21T09:30:40;7.40;;;4.53;;
52956;SDS011;38819;42.692;23.342;2023-04-21T09:33:06;6.40;;;4.10;;
52956;SDS011;38819;42.692;23.342;2023-04-21T09:35:38;4.65;;;4.25;;
52956;SDS011;38819;42.692;23.342;2023-04-21T09:38:08;6.55;;;4.35;;
52956;SDS011;38819;42.692;23.342;2023-04-21T09:40:35;5.28;;;3.78;;
52956;SDS011;38819;42.692;23.342;2023-04-21T09:43:01;10.25;;;4.35;;
52956;SDS011;38819;42.692;23.342;2023-04-21T09:45:27;10.20;;;3.80;;
52956;SDS011;38819;42.692;23.342;2023-04-21T09:47:57;7.67;;;4.37;;
52956;SDS011;38819;42.692;23.342;2023-04-21T09:50:28;10.48;;;4.90;;
52956;SDS011;38819;42.692;23.342;2023-04-21T09:52:54;8.63;;;4.28;;
52956;SDS011;38819;42.692;23.342;2023-04-21T09:55:27;6.05;;;4.53;;
52956;SDS011;38819;42.692;23.342;2023-04-21T09:57:59;8.85;;;4.72;;
52956;SDS011;38819;42.692;23.342;2023-04-21T10:00:27;8.45;;;5.13;;
52956;SDS011;38819;42.692;23.342;2023-04-21T10:02:53;7.80;;;5.50;;
52956;SDS011;38819;42.692;23.342;2023-04-21T10:05:21;5.45;;;4.38;;
52956;SDS011;38819;42.692;23.342;2023-04-21T10:07:47;10.90;;;4.43;;
52956;SDS011;38819;42.692;23.342;2023-04-21T10:10:21;9.63;;;3.45;;
52956;SDS011;38819;42.692;23.342;2023-04-21T10:15:29;7.63;;;4.85;;
52956;SDS011;38819;42.692;23.342;2023-04-21T10:21:00;7.40;;;4.53;;
52956;SDS011;38819;42.692;23.342;2023-04-21T10:23:27;6.63;;;4.63;;
52956;SDS011;38819;42.692;23.342;2023-04-21T10:31:34;6.88;;;5.30;;
52956;SDS011;38819;42.692;23.342;2023-04-21T10:40:03;7.95;;;5.88;;
52956;SDS011;38819;42.692;23.342;2023-04-21T10:42:26;10.27;;;5.15;;
52956;SDS011;38819;42.692;23.342;2023-04-21T10:47:29;7.43;;;4.40;;
52956;SDS011;38819;42.692;23.342;2023-04-21T10:49:56;9.73;;;4.20;;
52956;SDS011;38819;42.692;23.342;2023-04-21T10:52:30;7.80;;;4.60;;
52956;SDS011;38819;42.692;23.342;2023-04-21T10:57:23;7.40;;;4.32;;
52956;SDS011;38819;42.692;23.342;2023-04-21T10:59:49;6.05;;;3.55;;
52956;SDS011;38819;42.692;23.342;2023-04-21T11:02:16;4.40;;;3.25;;
52956;SDS011;38819;42.692;23.342;2023-04-21T11:07:14;11.88;;;3.50;;
52956;SDS011;38819;42.692;23.342;2023-04-21T11:09:44;6.25;;;4.72;;
52956;SDS011;38819;42.692;23.342;2023-04-21T11:12:14;4.03;;;3.70;;
52956;SDS011;38819;42.692;23.342;2023-04-21T11:14:42;6.22;;;4.43;;
52956;SDS011;38819;42.692;23.342;2023-04-21T11:17:10;6.97;;;5.57;;
52956;SDS011;38819;42.692;23.342;2023-04-21T11:19:36;7.22;;;5.00;;
52956;SDS011;38819;42.692;23.342;2023-04-21T11:22:02;6.75;;;5.00;;
52956;SDS011;38819;42.692;23.342;2023-04-21T11:24:28;6.63;;;5.07;;
52956;SDS011;38819;42.692;23.342;2023-04-21T11:26:54;7.07;;;4.60;;
52956;SDS011;38819;42.692;23.342;2023-04-21T11:29:20;6.95;;;4.47;;
52956;SDS011;38819;42.692;23.342;2023-04-21T11:31:46;9.48;;;4.60;;
52956;SDS011;38819;42.692;23.342;2023-04-21T11:34:14;5.90;;;4.97;;
52956;SDS011;38819;42.692;23.342;2023-04-21T11:36:43;9.45;;;5.05;;
52956;SDS011;38819;42.692;23.342;2023-04-21T11:39:10;5.55;;;4.80;;
52956;SDS011;38819;42.692;23.342;2023-04-21T11:41:38;8.93;;;4.85;;
52956;SDS011;38819;42.692;23.342;2023-04-21T11:44:05;6.78;;;4.40;;
52956;SDS011;38819;42.692;23.342;2023-04-21T11:46:31;11.93;;;4.63;;
52956;SDS011;38819;42.692;23.342;2023-04-21T11:48:58;5.13;;;4.45;;
52956;SDS011;38819;42.692;23.342;2023-04-21T11:51:23;6.18;;;3.72;;
52956;SDS011;38819;42.692;23.342;2023-04-21T11:53:49;8.15;;;3.92;;
52956;SDS011;38819;42.692;23.342;2023-04-21T11:56:20;7.95;;;3.95;;
52956;SDS011;38819;42.692;23.342;2023-04-21T11:58:47;3.85;;;2.92;;
52956;SDS011;38819;42.692;23.342;2023-04-21T12:01:14;3.75;;;2.78;;
52956;SDS011;38819;42.692;23.342;2023-04-21T12:03:41;2.80;;;2.60;;
52956;SDS011;38819;42.692;23.342;2023-04-21T12:06:06;5.35;;;2.22;;
52956;SDS011;38819;42.692;23.342;2023-04-21T12:08:32;2.33;;;2.08;;
52956;SDS011;38819;42.692;23.342;2023-04-21T12:10:58;10.20;;;2.30;;
52956;SDS011;38819;42.692;23.342;2023-04-21T12:13:26;7.60;;;2.42;;
52956;SDS011;38819;42.692;23.342;2023-04-21T12:15:52;2.75;;;2.35;;
52956;SDS011;38819;42.692;23.342;2023-04-21T12:18:18;2.42;;;2.20;;
52956;SDS011;38819;42.692;23.342;2023-04-21T12:20:50;8.13;;;2.35;;
52956;SDS011;38819;42.692;23.342;2023-04-21T12:23:17;6.15;;;3.22;;
52956;SDS011;38819;42.692;23.342;2023-04-21T12:25:43;2.92;;;2.72;;
52956;SDS011;38819;42.692;23.342;2023-04-21T12:28:10;5.35;;;3.75;;
52956;SDS011;38819;42.692;23.342;2023-04-21T12:30:39;5.93;;;3.78;;
52956;SDS011;38819;42.692;23.342;2023-04-21T12:33:05;7.05;;;3.72;;
52956;SDS011;38819;42.692;23.342;2023-04-21T12:35:30;9.30;;;4.18;;
52956;SDS011;38819;42.692;23.342;2023-04-21T12:37:57;9.95;;;4.50;;
52956;SDS011;38819;42.692;23.342;2023-04-21T12:40:22;8.90;;;4.20;;
52956;SDS011;38819;42.692;23.342;2023-04-21T12:42:48;8.50;;;4.68;;
52956;SDS011;38819;42.692;23.342;2023-04-21T12:45:13;6.20;;;3.92;;
52956;SDS011;38819;42.692;23.342;2023-04-21T12:47:39;6.85;;;4.68;;
52956;SDS011;38819;42.692;23.342;2023-04-21T12:50:06;9.75;;;4.90;;
52956;SDS011;38819;42.692;23.342;2023-04-21T12:52:32;5.00;;;4.50;;
52956;SDS011;38819;42.692;23.342;2023-04-21T12:54:57;9.77;;;4.72;;
52956;SDS011;38819;42.692;23.342;2023-04-21T12:57:23;9.25;;;5.10;;
52956;SDS011;38819;42.692;23.342;2023-04-21T12:59:48;10.38;;;4.90;;
52956;SDS011;38819;42.692;23.342;2023-04-21T13:02:14;5.63;;;4.28;;
52956;SDS011;38819;42.692;23.342;2023-04-21T13:04:39;4.68;;;4.03;;
52956;SDS011;38819;42.692;23.342;2023-04-21T13:07:06;6.55;;;4.13;;
52956;SDS011;38819;42.692;23.342;2023-04-21T13:09:31;7.28;;;3.78;;
52956;SDS011;38819;42.692;23.342;2023-04-21T13:11:57;7.95;;;4.15;;
52956;SDS011;38819;42.692;23.342;2023-04-21T13:14:22;6.25;;;3.67;;
52956;SDS011;38819;42.692;23.342;2023-04-21T13:16:48;6.63;;;3.60;;
52956;SDS011;38819;42.692;23.342;2023-04-21T13:19:13;6.78;;;3.60;;
52956;SDS011;38819;42.692;23.342;2023-04-21T13:21:39;4.07;;;3.58;;
52956;SDS011;38819;42.692;23.342;2023-04-21T13:24:05;7.00;;;3.53;;
52956;SDS011;38819;42.692;23.342;2023-04-21T13:26:31;8.05;;;3.53;;
52956;SDS011;38819;42.692;23.342;2023-04-21T13:28:59;5.88;;;4.18;;
52956;SDS011;38819;42.692;23.342;2023-04-21T13:31:24;8.18;;;4.15;;
52956;SDS011;38819;42.692;23.342;2023-04-21T13:33:50;12.15;;;4.63;;
52956;SDS011;38819;42.692;23.342;2023-04-21T13:36:15;7.80;;;3.90;;
52956;SDS011;38819;42.692;23.342;2023-04-21T13:38:41;8.35;;;4.07;;
52956;SDS011;38819;42.692;23.342;2023-04-21T13:41:07;5.05;;;4.30;;
52956;SDS011;38819;42.692;23.342;2023-04-21T13:43:32;5.03;;;3.95;;
52956;SDS011;38819;42.692;23.342;2023-04-21T13:45:58;8.40;;;4.00;;
52956;SDS011;38819;42.692;23.342;2023-04-21T13:48:24;14.80;;;4.50;;
52956;SDS011;38819;42.692;23.342;2023-04-21T13:50:50;7.63;;;4.77;;
52956;SDS011;38819;42.692;23.342;2023-04-21T13:53:16;10.10;;;5.28;;
52956;SDS011;38819;42.692;23.342;2023-04-21T13:55:42;5.65;;;4.18;;
52956;SDS011;38819;42.692;23.342;2023-04-21T13:58:08;7.93;;;4.40;;
52956;SDS011;38819;42.692;23.342;2023-04-21T14:00:34;6.97;;;4.68;;
52956;SDS011;38819;42.692;23.342;2023-04-21T14:02:59;9.63;;;4.47;;
52956;SDS011;38819;42.692;23.342;2023-04-21T14:05:25;8.63;;;5.07;;
52956;SDS011;38819;42.692;23.342;2023-04-21T14:07:50;5.32;;;4.30;;
52956;SDS011;38819;42.692;23.342;2023-04-21T14:10:16;11.23;;;4.93;;
52956;SDS011;38819;42.692;23.342;2023-04-21T14:12:41;7.20;;;5.13;;
52956;SDS011;38819;42.692;23.342;2023-04-21T14:17:34;8.82;;;4.30;;
52956;SDS011;38819;42.692;23.342;2023-04-21T14:20:00;10.13;;;5.10;;
52956;SDS011;38819;42.692;23.342;2023-04-21T14:22:25;11.65;;;4.90;;
52956;SDS011;38819;42.692;23.342;2023-04-21T14:24:52;11.87;;;4.77;;
52956;SDS011;38819;42.692;23.342;2023-04-21T14:27:17;9.20;;;4.80;;
52956;SDS011;38819;42.692;23.342;2023-04-21T14:29:43;7.13;;;4.45;;
52956;SDS011;38819;42.692;23.342;2023-04-21T14:32:08;8.05;;;5.25;;
52956;SDS011;38819;42.692;23.342;2023-04-21T14:34:33;6.20;;;3.97;;
52956;SDS011;38819;42.692;23.342;2023-04-21T14:36:59;11.77;;;5.15;;
52956;SDS011;38819;42.692;23.342;2023-04-21T14:39:25;9.35;;;4.93;;
52956;SDS011;38819;42.692;23.342;2023-04-21T14:41:50;11.32;;;5.00;;
52956;SDS011;38819;42.692;23.342;2023-04-21T14:44:16;13.98;;;5.10;;
52956;SDS011;38819;42.692;23.342;2023-04-21T14:46:43;9.60;;;5.33;;
52956;SDS011;38819;42.692;23.342;2023-04-21T14:49:09;9.50;;;5.03;;